Аэропорт: Пулково. Санкт-Петербург

ICAO: ULLI

METAR:
2018/05/20 23:00
ULLI 202300Z 25003MPS CAVOK 10/04 Q1027 R28L/090060 NOSIG
METAR:
2018/05/20 21:21
TAF TAF ULLI 201957Z 2021/2121 24003MPS 9999 SCT025 
      TEMPO 2101/2105 3100 BR 
      TEMPO 2106/2118 28005G10MPS